sensor_id;sensor_type;location;lat;lon;timestamp;P1;durP1;ratioP1;P2;durP2;ratioP2
71042;SDS011;58696;52.134;5.500;2022-11-22T00:00:25;5.53;;;2.97;;
71042;SDS011;58696;52.134;5.500;2022-11-22T00:02:53;2.57;;;1.77;;
71042;SDS011;58696;52.134;5.500;2022-11-22T00:05:21;5.38;;;2.22;;
71042;SDS011;58696;52.134;5.500;2022-11-22T00:07:48;8.45;;;3.03;;
71042;SDS011;58696;52.134;5.500;2022-11-22T00:10:16;10.90;;;3.40;;
71042;SDS011;58696;52.134;5.500;2022-11-22T00:12:43;5.53;;;2.25;;
71042;SDS011;58696;52.134;5.500;2022-11-22T00:15:10;4.32;;;2.63;;
71042;SDS011;58696;52.134;5.500;2022-11-22T00:20:06;7.50;;;2.53;;
71042;SDS011;58696;52.134;5.500;2022-11-22T00:22:37;9.43;;;3.15;;
71042;SDS011;58696;52.134;5.500;2022-11-22T00:25:09;6.47;;;3.25;;
71042;SDS011;58696;52.134;5.500;2022-11-22T00:27:37;4.78;;;2.50;;
71042;SDS011;58696;52.134;5.500;2022-11-22T00:30:04;4.30;;;2.28;;
71042;SDS011;58696;52.134;5.500;2022-11-22T00:32:31;5.38;;;2.50;;
71042;SDS011;58696;52.134;5.500;2022-11-22T00:34:58;6.00;;;2.83;;
71042;SDS011;58696;52.134;5.500;2022-11-22T00:37:25;5.28;;;3.58;;
71042;SDS011;58696;52.134;5.500;2022-11-22T00:39:51;9.40;;;3.42;;
71042;SDS011;58696;52.134;5.500;2022-11-22T00:42:18;3.83;;;2.30;;
71042;SDS011;58696;52.134;5.500;2022-11-22T00:44:45;8.05;;;3.03;;
71042;SDS011;58696;52.134;5.500;2022-11-22T00:47:12;7.50;;;3.40;;
71042;SDS011;58696;52.134;5.500;2022-11-22T00:49:39;4.80;;;2.92;;
71042;SDS011;58696;52.134;5.500;2022-11-22T00:52:05;12.70;;;3.58;;
71042;SDS011;58696;52.134;5.500;2022-11-22T00:54:34;5.95;;;3.40;;
71042;SDS011;58696;52.134;5.500;2022-11-22T00:57:01;17.42;;;4.15;;
71042;SDS011;58696;52.134;5.500;2022-11-22T00:59:28;5.47;;;3.28;;
71042;SDS011;58696;52.134;5.500;2022-11-22T01:01:55;7.75;;;2.88;;
71042;SDS011;58696;52.134;5.500;2022-11-22T01:04:23;8.52;;;3.25;;
71042;SDS011;58696;52.134;5.500;2022-11-22T01:06:50;5.65;;;2.35;;
71042;SDS011;58696;52.134;5.500;2022-11-22T01:09:19;4.53;;;3.23;;
71042;SDS011;58696;52.134;5.500;2022-11-22T01:11:47;3.17;;;1.75;;
71042;SDS011;58696;52.134;5.500;2022-11-22T01:14:16;6.68;;;3.05;;
71042;SDS011;58696;52.134;5.500;2022-11-22T01:16:43;6.60;;;3.30;;
71042;SDS011;58696;52.134;5.500;2022-11-22T01:19:13;5.95;;;3.45;;
71042;SDS011;58696;52.134;5.500;2022-11-22T01:21:40;2.85;;;2.00;;
71042;SDS011;58696;52.134;5.500;2022-11-22T01:24:07;7.53;;;3.33;;
71042;SDS011;58696;52.134;5.500;2022-11-22T01:26:33;6.80;;;3.10;;
71042;SDS011;58696;52.134;5.500;2022-11-22T01:29:02;7.03;;;2.80;;
71042;SDS011;58696;52.134;5.500;2022-11-22T01:31:30;4.72;;;2.78;;
71042;SDS011;58696;52.134;5.500;2022-11-22T01:33:57;8.90;;;3.78;;
71042;SDS011;58696;52.134;5.500;2022-11-22T01:36:25;4.00;;;2.60;;
71042;SDS011;58696;52.134;5.500;2022-11-22T01:38:53;8.13;;;3.25;;
71042;SDS011;58696;52.134;5.500;2022-11-22T01:41:21;8.82;;;3.15;;
71042;SDS011;58696;52.134;5.500;2022-11-22T01:43:52;5.25;;;2.88;;
71042;SDS011;58696;52.134;5.500;2022-11-22T01:49:03;8.73;;;2.72;;
71042;SDS011;58696;52.134;5.500;2022-11-22T01:51:43;7.35;;;2.97;;
71042;SDS011;58696;52.134;5.500;2022-11-22T01:54:16;6.78;;;3.03;;
71042;SDS011;58696;52.134;5.500;2022-11-22T01:56:51;4.40;;;2.45;;
71042;SDS011;58696;52.134;5.500;2022-11-22T01:59:24;5.05;;;2.85;;
71042;SDS011;58696;52.134;5.500;2022-11-22T02:01:54;7.70;;;2.97;;
71042;SDS011;58696;52.134;5.500;2022-11-22T02:04:22;3.40;;;2.03;;
71042;SDS011;58696;52.134;5.500;2022-11-22T02:07:04;5.03;;;2.90;;
71042;SDS011;58696;52.134;5.500;2022-11-22T02:09:39;4.78;;;2.88;;
71042;SDS011;58696;52.134;5.500;2022-11-22T02:12:08;8.30;;;2.30;;
71042;SDS011;58696;52.134;5.500;2022-11-22T02:14:37;6.97;;;3.00;;
71042;SDS011;58696;52.134;5.500;2022-11-22T02:17:06;7.72;;;2.90;;
71042;SDS011;58696;52.134;5.500;2022-11-22T02:25:13;3.80;;;2.10;;
71042;SDS011;58696;52.134;5.500;2022-11-22T02:27:41;9.07;;;2.50;;
71042;SDS011;58696;52.134;5.500;2022-11-22T02:30:09;5.88;;;2.92;;
71042;SDS011;58696;52.134;5.500;2022-11-22T02:32:36;3.70;;;2.17;;
71042;SDS011;58696;52.134;5.500;2022-11-22T02:38:08;5.97;;;2.60;;
71042;SDS011;58696;52.134;5.500;2022-11-22T02:40:41;6.28;;;2.38;;
71042;SDS011;58696;52.134;5.500;2022-11-22T02:43:16;14.20;;;3.30;;
71042;SDS011;58696;52.134;5.500;2022-11-22T02:45:48;8.95;;;2.83;;
71042;SDS011;58696;52.134;5.500;2022-11-22T02:50:43;4.47;;;2.13;;
71042;SDS011;58696;52.134;5.500;2022-11-22T02:53:11;5.55;;;2.08;;
71042;SDS011;58696;52.134;5.500;2022-11-22T02:55:39;9.63;;;2.47;;
71042;SDS011;58696;52.134;5.500;2022-11-22T02:58:06;6.88;;;2.60;;
71042;SDS011;58696;52.134;5.500;2022-11-22T03:00:33;5.93;;;2.13;;
71042;SDS011;58696;52.134;5.500;2022-11-22T03:03:02;5.95;;;2.35;;
71042;SDS011;58696;52.134;5.500;2022-11-22T03:05:28;4.68;;;2.03;;
71042;SDS011;58696;52.134;5.500;2022-11-22T03:07:57;6.55;;;1.88;;
71042;SDS011;58696;52.134;5.500;2022-11-22T03:10:23;5.95;;;1.95;;
71042;SDS011;58696;52.134;5.500;2022-11-22T03:12:51;3.63;;;2.00;;
71042;SDS011;58696;52.134;5.500;2022-11-22T03:15:18;9.13;;;2.17;;
71042;SDS011;58696;52.134;5.500;2022-11-22T03:17:47;7.78;;;2.30;;
71042;SDS011;58696;52.134;5.500;2022-11-22T03:20:14;10.00;;;1.95;;
71042;SDS011;58696;52.134;5.500;2022-11-22T03:22:42;7.53;;;2.17;;
71042;SDS011;58696;52.134;5.500;2022-11-22T03:25:11;4.95;;;1.95;;
71042;SDS011;58696;52.134;5.500;2022-11-22T03:27:38;12.30;;;2.22;;
71042;SDS011;58696;52.134;5.500;2022-11-22T03:30:06;5.40;;;2.40;;
71042;SDS011;58696;52.134;5.500;2022-11-22T03:35:02;8.38;;;2.80;;
71042;SDS011;58696;52.134;5.500;2022-11-22T03:37:31;5.30;;;1.50;;
71042;SDS011;58696;52.134;5.500;2022-11-22T03:39:58;9.63;;;2.22;;
71042;SDS011;58696;52.134;5.500;2022-11-22T03:42:24;4.78;;;1.67;;
71042;SDS011;58696;52.134;5.500;2022-11-22T03:44:51;5.03;;;1.13;;
71042;SDS011;58696;52.134;5.500;2022-11-22T03:47:18;4.88;;;1.83;;
71042;SDS011;58696;52.134;5.500;2022-11-22T03:49:45;10.07;;;1.95;;
71042;SDS011;58696;52.134;5.500;2022-11-22T03:52:13;3.15;;;1.50;;
71042;SDS011;58696;52.134;5.500;2022-11-22T03:54:40;6.00;;;1.90;;
71042;SDS011;58696;52.134;5.500;2022-11-22T03:57:10;4.32;;;1.60;;
71042;SDS011;58696;52.134;5.500;2022-11-22T03:59:37;6.03;;;1.77;;
71042;SDS011;58696;52.134;5.500;2022-11-22T04:02:04;7.70;;;1.80;;
71042;SDS011;58696;52.134;5.500;2022-11-22T04:04:30;4.97;;;1.92;;
71042;SDS011;58696;52.134;5.500;2022-11-22T04:06:58;8.57;;;2.20;;
71042;SDS011;58696;52.134;5.500;2022-11-22T04:09:25;8.70;;;1.75;;
71042;SDS011;58696;52.134;5.500;2022-11-22T04:11:52;11.85;;;1.67;;
71042;SDS011;58696;52.134;5.500;2022-11-22T04:14:19;7.85;;;1.63;;
71042;SDS011;58696;52.134;5.500;2022-11-22T04:17:06;11.02;;;2.30;;
71042;SDS011;58696;52.134;5.500;2022-11-22T04:19:37;4.63;;;1.90;;
71042;SDS011;58696;52.134;5.500;2022-11-22T04:22:04;4.80;;;2.08;;
71042;SDS011;58696;52.134;5.500;2022-11-22T04:24:31;7.35;;;1.73;;
71042;SDS011;58696;52.134;5.500;2022-11-22T04:27:17;8.15;;;1.73;;
71042;SDS011;58696;52.134;5.500;2022-11-22T04:29:47;9.35;;;1.67;;
71042;SDS011;58696;52.134;5.500;2022-11-22T04:32:14;3.88;;;1.17;;
71042;SDS011;58696;52.134;5.500;2022-11-22T04:34:59;7.18;;;1.90;;
71042;SDS011;58696;52.134;5.500;2022-11-22T04:37:26;5.20;;;1.63;;
71042;SDS011;58696;52.134;5.500;2022-11-22T04:39:53;7.68;;;1.63;;
71042;SDS011;58696;52.134;5.500;2022-11-22T04:42:19;7.03;;;1.92;;
71042;SDS011;58696;52.134;5.500;2022-11-22T04:45:06;5.57;;;1.65;;
71042;SDS011;58696;52.134;5.500;2022-11-22T04:47:34;10.55;;;1.75;;
71042;SDS011;58696;52.134;5.500;2022-11-22T04:50:20;6.63;;;1.52;;
71042;SDS011;58696;52.134;5.500;2022-11-22T04:53:06;16.63;;;2.53;;
71042;SDS011;58696;52.134;5.500;2022-11-22T04:55:33;5.22;;;1.33;;
71042;SDS011;58696;52.134;5.500;2022-11-22T04:58:00;8.30;;;1.70;;
71042;SDS011;58696;52.134;5.500;2022-11-22T05:00:28;8.90;;;1.80;;
71042;SDS011;58696;52.134;5.500;2022-11-22T05:02:56;7.53;;;1.42;;
71042;SDS011;58696;52.134;5.500;2022-11-22T05:05:24;15.48;;;1.83;;
71042;SDS011;58696;52.134;5.500;2022-11-22T05:07:51;8.83;;;1.60;;
71042;SDS011;58696;52.134;5.500;2022-11-22T05:10:18;5.93;;;2.20;;
71042;SDS011;58696;52.134;5.500;2022-11-22T05:12:52;9.43;;;1.30;;
71042;SDS011;58696;52.134;5.500;2022-11-22T05:15:19;5.45;;;1.45;;
71042;SDS011;58696;52.134;5.500;2022-11-22T05:17:47;7.88;;;1.83;;
71042;SDS011;58696;52.134;5.500;2022-11-22T05:20:15;4.70;;;1.70;;
71042;SDS011;58696;52.134;5.500;2022-11-22T05:22:42;3.25;;;1.00;;
71042;SDS011;58696;52.134;5.500;2022-11-22T05:25:27;5.72;;;1.63;;
71042;SDS011;58696;52.134;5.500;2022-11-22T05:27:55;6.88;;;1.40;;
71042;SDS011;58696;52.134;5.500;2022-11-22T05:30:22;4.90;;;1.98;;
71042;SDS011;58696;52.134;5.500;2022-11-22T05:32:49;11.13;;;2.08;;
71042;SDS011;58696;52.134;5.500;2022-11-22T05:35:15;3.90;;;1.27;;
71042;SDS011;58696;52.134;5.500;2022-11-22T05:37:43;6.25;;;1.52;;
71042;SDS011;58696;52.134;5.500;2022-11-22T05:40:10;6.68;;;1.80;;
71042;SDS011;58696;52.134;5.500;2022-11-22T05:42:38;1.85;;;1.10;;
71042;SDS011;58696;52.134;5.500;2022-11-22T05:45:06;3.78;;;1.15;;
71042;SDS011;58696;52.134;5.500;2022-11-22T05:47:34;6.88;;;1.58;;
71042;SDS011;58696;52.134;5.500;2022-11-22T05:50:03;5.60;;;1.23;;
71042;SDS011;58696;52.134;5.500;2022-11-22T05:52:34;14.25;;;1.58;;
71042;SDS011;58696;52.134;5.500;2022-11-22T05:55:01;6.07;;;1.30;;
71042;SDS011;58696;52.134;5.500;2022-11-22T06:02:26;4.53;;;1.38;;
71042;SDS011;58696;52.134;5.500;2022-11-22T06:04:53;2.38;;;1.00;;
71042;SDS011;58696;52.134;5.500;2022-11-22T06:07:20;3.17;;;1.42;;
71042;SDS011;58696;52.134;5.500;2022-11-22T06:09:47;9.97;;;1.73;;
71042;SDS011;58696;52.134;5.500;2022-11-22T06:12:14;6.43;;;1.80;;
71042;SDS011;58696;52.134;5.500;2022-11-22T06:14:41;4.05;;;0.98;;
71042;SDS011;58696;52.134;5.500;2022-11-22T06:17:10;4.88;;;1.58;;
71042;SDS011;58696;52.134;5.500;2022-11-22T06:19:37;7.75;;;1.88;;
71042;SDS011;58696;52.134;5.500;2022-11-22T06:22:04;5.05;;;1.75;;
71042;SDS011;58696;52.134;5.500;2022-11-22T06:24:31;7.38;;;1.65;;
71042;SDS011;58696;52.134;5.500;2022-11-22T06:26:58;7.15;;;1.55;;
71042;SDS011;58696;52.134;5.500;2022-11-22T06:29:25;9.77;;;1.40;;
71042;SDS011;58696;52.134;5.500;2022-11-22T06:31:54;6.57;;;1.58;;
71042;SDS011;58696;52.134;5.500;2022-11-22T06:34:28;8.25;;;1.58;;
71042;SDS011;58696;52.134;5.500;2022-11-22T06:36:55;6.18;;;1.25;;
71042;SDS011;58696;52.134;5.500;2022-11-22T06:39:22;2.90;;;1.42;;
71042;SDS011;58696;52.134;5.500;2022-11-22T06:41:49;9.20;;;1.52;;
71042;SDS011;58696;52.134;5.500;2022-11-22T06:44:16;2.22;;;0.93;;
71042;SDS011;58696;52.134;5.500;2022-11-22T06:46:43;19.25;;;2.28;;
71042;SDS011;58696;52.134;5.500;2022-11-22T06:49:10;6.03;;;1.60;;
71042;SDS011;58696;52.134;5.500;2022-11-22T06:51:37;3.35;;;1.00;;
71042;SDS011;58696;52.134;5.500;2022-11-22T06:54:04;1.10;;;0.30;;
71042;SDS011;58696;52.134;5.500;2022-11-22T06:56:37;7.45;;;1.20;;
71042;SDS011;58696;52.134;5.500;2022-11-22T06:59:08;3.95;;;1.20;;
71042;SDS011;58696;52.134;5.500;2022-11-22T07:01:35;8.63;;;1.33;;
71042;SDS011;58696;52.134;5.500;2022-11-22T07:04:03;11.77;;;1.95;;
71042;SDS011;58696;52.134;5.500;2022-11-22T07:06:31;2.90;;;0.90;;
71042;SDS011;58696;52.134;5.500;2022-11-22T07:09:04;7.38;;;1.45;;
71042;SDS011;58696;52.134;5.500;2022-11-22T07:11:34;6.53;;;1.67;;
71042;SDS011;58696;52.134;5.500;2022-11-22T07:14:02;6.90;;;1.73;;
71042;SDS011;58696;52.134;5.500;2022-11-22T07:16:36;9.25;;;1.63;;
71042;SDS011;58696;52.134;5.500;2022-11-22T07:21:31;2.40;;;1.02;;
71042;SDS011;58696;52.134;5.500;2022-11-22T07:26:26;4.18;;;1.40;;
71042;SDS011;58696;52.134;5.500;2022-11-22T07:28:55;2.80;;;1.25;;
71042;SDS011;58696;52.134;5.500;2022-11-22T07:31:26;7.80;;;1.52;;
71042;SDS011;58696;52.134;5.500;2022-11-22T07:33:54;2.85;;;1.20;;
71042;SDS011;58696;52.134;5.500;2022-11-22T07:36:23;2.88;;;0.82;;
71042;SDS011;58696;52.134;5.500;2022-11-22T07:38:51;4.00;;;1.60;;
71042;SDS011;58696;52.134;5.500;2022-11-22T07:41:18;2.58;;;1.20;;
71042;SDS011;58696;52.134;5.500;2022-11-22T07:43:45;13.13;;;2.47;;
71042;SDS011;58696;52.134;5.500;2022-11-22T07:46:23;3.15;;;1.20;;
71042;SDS011;58696;52.134;5.500;2022-11-22T07:48:57;6.03;;;1.65;;
71042;SDS011;58696;52.134;5.500;2022-11-22T07:51:27;4.18;;;1.30;;
71042;SDS011;58696;52.134;5.500;2022-11-22T07:53:54;4.53;;;1.27;;
71042;SDS011;58696;52.134;5.500;2022-11-22T07:56:21;6.47;;;1.35;;
71042;SDS011;58696;52.134;5.500;2022-11-22T07:58:51;1.27;;;0.68;;
71042;SDS011;58696;52.134;5.500;2022-11-22T08:01:18;9.73;;;1.67;;
71042;SDS011;58696;52.134;5.500;2022-11-22T08:03:49;2.03;;;1.02;;
71042;SDS011;58696;52.134;5.500;2022-11-22T08:06:16;5.88;;;1.83;;
71042;SDS011;58696;52.134;5.500;2022-11-22T08:08:42;5.35;;;1.52;;
71042;SDS011;58696;52.134;5.500;2022-11-22T08:11:10;4.13;;;1.10;;
71042;SDS011;58696;52.134;5.500;2022-11-22T08:13:40;2.28;;;1.08;;
71042;SDS011;58696;52.134;5.500;2022-11-22T08:16:13;4.68;;;1.77;;
71042;SDS011;58696;52.134;5.500;2022-11-22T08:18:44;5.10;;;0.98;;
71042;SDS011;58696;52.134;5.500;2022-11-22T08:21:14;3.20;;;0.85;;
71042;SDS011;58696;52.134;5.500;2022-11-22T08:23:44;3.22;;;1.25;;
71042;SDS011;58696;52.134;5.500;2022-11-22T08:26:13;9.38;;;1.92;;
71042;SDS011;58696;52.134;5.500;2022-11-22T08:28:41;5.30;;;1.33;;
71042;SDS011;58696;52.134;5.500;2022-11-22T08:31:11;1.13;;;0.88;;
71042;SDS011;58696;52.134;5.500;2022-11-22T08:33:40;6.35;;;1.33;;
71042;SDS011;58696;52.134;5.500;2022-11-22T08:36:07;4.88;;;1.33;;
71042;SDS011;58696;52.134;5.500;2022-11-22T08:38:34;6.55;;;1.02;;
71042;SDS011;58696;52.134;5.500;2022-11-22T08:41:01;4.20;;;1.02;;
71042;SDS011;58696;52.134;5.500;2022-11-22T08:43:29;3.88;;;1.63;;
71042;SDS011;58696;52.134;5.500;2022-11-22T08:45:57;2.72;;;1.25;;
71042;SDS011;58696;52.134;5.500;2022-11-22T08:48:24;4.55;;;1.42;;
71042;SDS011;58696;52.134;5.500;2022-11-22T08:51:02;2.08;;;1.58;;
71042;SDS011;58696;52.134;5.500;2022-11-22T08:53:32;2.90;;;1.10;;
71042;SDS011;58696;52.134;5.500;2022-11-22T08:56:06;8.50;;;2.35;;
71042;SDS011;58696;52.134;5.500;2022-11-22T08:58:54;5.22;;;1.92;;
71042;SDS011;58696;52.134;5.500;2022-11-22T09:01:23;8.40;;;0.95;;
71042;SDS011;58696;52.134;5.500;2022-11-22T09:03:50;4.82;;;1.05;;
71042;SDS011;58696;52.134;5.500;2022-11-22T09:06:17;5.13;;;1.83;;
71042;SDS011;58696;52.134;5.500;2022-11-22T09:09:06;3.40;;;0.98;;
71042;SDS011;58696;52.134;5.500;2022-11-22T09:11:53;9.05;;;1.50;;
71042;SDS011;58696;52.134;5.500;2022-11-22T09:14:20;4.15;;;1.05;;
71042;SDS011;58696;52.134;5.500;2022-11-22T09:16:47;6.50;;;1.50;;
71042;SDS011;58696;52.134;5.500;2022-11-22T09:19:16;5.18;;;1.38;;
71042;SDS011;58696;52.134;5.500;2022-11-22T09:21:42;5.88;;;1.80;;
71042;SDS011;58696;52.134;5.500;2022-11-22T09:24:10;2.00;;;0.82;;
71042;SDS011;58696;52.134;5.500;2022-11-22T09:26:36;9.60;;;1.88;;
71042;SDS011;58696;52.134;5.500;2022-11-22T09:29:03;7.13;;;1.38;;
71042;SDS011;58696;52.134;5.500;2022-11-22T09:31:30;9.85;;;2.10;;
71042;SDS011;58696;52.134;5.500;2022-11-22T09:33:57;5.03;;;1.70;;
71042;SDS011;58696;52.134;5.500;2022-11-22T09:36:24;10.88;;;1.83;;
71042;SDS011;58696;52.134;5.500;2022-11-22T09:38:53;3.92;;;1.67;;
71042;SDS011;58696;52.134;5.500;2022-11-22T09:54:36;2.65;;;1.17;;
71042;SDS011;58696;52.134;5.500;2022-11-22T09:57:10;6.32;;;1.83;;
71042;SDS011;58696;52.134;5.500;2022-11-22T09:59:43;7.32;;;1.60;;
71042;SDS011;58696;52.134;5.500;2022-11-22T10:02:20;1.88;;;0.95;;
71042;SDS011;58696;52.134;5.500;2022-11-22T10:05:19;6.78;;;2.08;;
71042;SDS011;58696;52.134;5.500;2022-11-22T10:07:55;2.05;;;1.10;;
71042;SDS011;58696;52.134;5.500;2022-11-22T10:10:36;3.72;;;1.15;;
71042;SDS011;58696;52.134;5.500;2022-11-22T10:13:20;4.68;;;1.42;;
71042;SDS011;58696;52.134;5.500;2022-11-22T10:16:15;4.05;;;0.93;;
71042;SDS011;58696;52.134;5.500;2022-11-22T10:18:53;4.97;;;1.50;;
71042;SDS011;58696;52.134;5.500;2022-11-22T10:21:28;4.10;;;1.60;;
71042;SDS011;58696;52.134;5.500;2022-11-22T10:23:55;2.88;;;1.35;;
71042;SDS011;58696;52.134;5.500;2022-11-22T10:26:23;4.53;;;1.70;;
71042;SDS011;58696;52.134;5.500;2022-11-22T10:32:39;4.47;;;1.02;;
71042;SDS011;58696;52.134;5.500;2022-11-22T10:34:39;7.43;;;1.70;;
71042;SDS011;58696;52.134;5.500;2022-11-22T10:37:24;2.60;;;0.93;;
71042;SDS011;58696;52.134;5.500;2022-11-22T10:45:23;2.95;;;0.55;;
71042;SDS011;58696;52.134;5.500;2022-11-22T10:53:10;5.35;;;1.88;;
71042;SDS011;58696;52.134;5.500;2022-11-22T11:01:28;3.88;;;0.65;;
71042;SDS011;58696;52.134;5.500;2022-11-22T11:03:58;3.00;;;1.45;;
71042;SDS011;58696;52.134;5.500;2022-11-22T11:09:38;3.28;;;1.27;;
71042;SDS011;58696;52.134;5.500;2022-11-22T11:12:49;3.15;;;1.20;;
71042;SDS011;58696;52.134;5.500;2022-11-22T11:17:56;1.58;;;0.82;;
71042;SDS011;58696;52.134;5.500;2022-11-22T11:20:28;4.80;;;1.60;;
71042;SDS011;58696;52.134;5.500;2022-11-22T11:23:00;3.17;;;1.35;;
71042;SDS011;58696;52.134;5.500;2022-11-22T11:25:43;2.33;;;0.73;;
71042;SDS011;58696;52.134;5.500;2022-11-22T11:33:28;4.38;;;0.57;;
71042;SDS011;58696;52.134;5.500;2022-11-22T11:36:00;7.70;;;1.10;;
71042;SDS011;58696;52.134;5.500;2022-11-22T11:38:34;5.88;;;1.60;;
71042;SDS011;58696;52.134;5.500;2022-11-22T11:43:47;4.35;;;1.85;;
71042;SDS011;58696;52.134;5.500;2022-11-22T11:46:17;2.75;;;0.90;;
71042;SDS011;58696;52.134;5.500;2022-11-22T11:48:55;3.60;;;1.25;;
71042;SDS011;58696;52.134;5.500;2022-11-22T11:51:36;0.70;;;0.45;;
71042;SDS011;58696;52.134;5.500;2022-11-22T11:54:08;4.15;;;1.02;;
71042;SDS011;58696;52.134;5.500;2022-11-22T11:56:41;1.23;;;0.68;;
71042;SDS011;58696;52.134;5.500;2022-11-22T11:59:12;1.02;;;0.80;;
71042;SDS011;58696;52.134;5.500;2022-11-22T12:01:52;7.68;;;0.73;;
71042;SDS011;58696;52.134;5.500;2022-11-22T12:04:28;1.27;;;0.65;;
71042;SDS011;58696;52.134;5.500;2022-11-22T12:07:01;1.02;;;0.43;;
71042;SDS011;58696;52.134;5.500;2022-11-22T12:09:31;1.23;;;0.77;;
71042;SDS011;58696;52.134;5.500;2022-11-22T12:12:49;4.35;;;0.90;;
71042;SDS011;58696;52.134;5.500;2022-11-22T12:15:36;1.15;;;0.57;;
71042;SDS011;58696;52.134;5.500;2022-11-22T12:17:48;4.90;;;1.05;;
71042;SDS011;58696;52.134;5.500;2022-11-22T12:20:34;1.85;;;0.98;;
71042;SDS011;58696;52.134;5.500;2022-11-22T12:23:13;1.42;;;0.95;;
71042;SDS011;58696;52.134;5.500;2022-11-22T12:25:49;1.92;;;0.85;;
71042;SDS011;58696;52.134;5.500;2022-11-22T12:28:21;1.70;;;0.93;;
71042;SDS011;58696;52.134;5.500;2022-11-22T12:31:37;0.80;;;0.80;;
71042;SDS011;58696;52.134;5.500;2022-11-22T12:34:09;0.55;;;0.50;;
71042;SDS011;58696;52.134;5.500;2022-11-22T12:36:43;0.85;;;0.73;;
71042;SDS011;58696;52.134;5.500;2022-11-22T12:39:15;2.22;;;1.13;;
71042;SDS011;58696;52.134;5.500;2022-11-22T12:41:47;0.82;;;0.60;;
71042;SDS011;58696;52.134;5.500;2022-11-22T12:44:20;1.92;;;0.98;;
71042;SDS011;58696;52.134;5.500;2022-11-22T12:46:51;1.55;;;0.90;;
71042;SDS011;58696;52.134;5.500;2022-11-22T12:49:42;1.65;;;0.90;;
71042;SDS011;58696;52.134;5.500;2022-11-22T12:52:22;2.65;;;0.55;;
71042;SDS011;58696;52.134;5.500;2022-11-22T12:54:57;2.60;;;0.82;;
71042;SDS011;58696;52.134;5.500;2022-11-22T12:57:38;0.80;;;0.55;;
71042;SDS011;58696;52.134;5.500;2022-11-22T13:05:58;1.05;;;0.88;;
71042;SDS011;58696;52.134;5.500;2022-11-22T13:08:28;1.20;;;0.82;;
71042;SDS011;58696;52.134;5.500;2022-11-22T13:11:05;3.03;;;0.82;;
71042;SDS011;58696;52.134;5.500;2022-11-22T13:13:44;1.48;;;0.93;;
71042;SDS011;58696;52.134;5.500;2022-11-22T13:16:14;1.30;;;0.70;;
71042;SDS011;58696;52.134;5.500;2022-11-22T13:18:46;0.50;;;0.50;;
71042;SDS011;58696;52.134;5.500;2022-11-22T13:29:21;0.82;;;0.52;;
71042;SDS011;58696;52.134;5.500;2022-11-22T13:32:04;3.42;;;0.50;;
71042;SDS011;58696;52.134;5.500;2022-11-22T13:34:35;0.40;;;0.30;;
71042;SDS011;58696;52.134;5.500;2022-11-22T13:37:09;2.63;;;0.70;;
71042;SDS011;58696;52.134;5.500;2022-11-22T13:39:43;0.77;;;0.50;;
71042;SDS011;58696;52.134;5.500;2022-11-22T13:49:48;0.40;;;0.40;;
71042;SDS011;58696;52.134;5.500;2022-11-22T14:02:43;0.77;;;0.77;;
71042;SDS011;58696;52.134;5.500;2022-11-22T14:07:54;0.70;;;0.22;;
71042;SDS011;58696;52.134;5.500;2022-11-22T14:10:25;0.35;;;0.35;;
71042;SDS011;58696;52.134;5.500;2022-11-22T14:18:27;0.52;;;0.43;;
71042;SDS011;58696;52.134;5.500;2022-11-22T14:21:40;0.95;;;0.47;;
71042;SDS011;58696;52.134;5.500;2022-11-22T14:32:20;0.95;;;0.40;;
71042;SDS011;58696;52.134;5.500;2022-11-22T14:39:59;1.73;;;0.63;;
71042;SDS011;58696;52.134;5.500;2022-11-22T14:47:52;0.52;;;0.52;;
71042;SDS011;58696;52.134;5.500;2022-11-22T14:50:39;1.70;;;0.50;;
71042;SDS011;58696;52.134;5.500;2022-11-22T14:56:15;1.05;;;0.55;;
71042;SDS011;58696;52.134;5.500;2022-11-22T14:59:00;0.82;;;0.60;;
71042;SDS011;58696;52.134;5.500;2022-11-22T15:05:15;0.30;;;0.30;;
71042;SDS011;58696;52.134;5.500;2022-11-22T15:08:19;0.63;;;0.50;;
71042;SDS011;58696;52.134;5.500;2022-11-22T15:17:15;2.63;;;0.75;;
71042;SDS011;58696;52.134;5.500;2022-11-22T15:20:29;0.68;;;0.57;;
71042;SDS011;58696;52.134;5.500;2022-11-22T15:23:27;0.50;;;0.50;;
71042;SDS011;58696;52.134;5.500;2022-11-22T15:26:17;3.25;;;0.80;;
71042;SDS011;58696;52.134;5.500;2022-11-22T15:29:05;0.60;;;0.50;;
71042;SDS011;58696;52.134;5.500;2022-11-22T15:31:52;1.30;;;0.93;;
71042;SDS011;58696;52.134;5.500;2022-11-22T15:34:39;1.17;;;0.70;;
71042;SDS011;58696;52.134;5.500;2022-11-22T15:37:36;2.67;;;0.70;;
71042;SDS011;58696;52.134;5.500;2022-11-22T15:40:39;0.60;;;0.60;;
71042;SDS011;58696;52.134;5.500;2022-11-22T15:43:26;1.77;;;0.70;;
71042;SDS011;58696;52.134;5.500;2022-11-22T15:46:15;0.85;;;0.50;;
71042;SDS011;58696;52.134;5.500;2022-11-22T15:49:08;0.77;;;0.60;;
71042;SDS011;58696;52.134;5.500;2022-11-22T15:51:59;1.40;;;0.50;;
71042;SDS011;58696;52.134;5.500;2022-11-22T15:54:51;0.57;;;0.43;;
71042;SDS011;58696;52.134;5.500;2022-11-22T15:57:39;1.05;;;0.57;;
71042;SDS011;58696;52.134;5.500;2022-11-22T16:00:45;1.23;;;0.82;;
71042;SDS011;58696;52.134;5.500;2022-11-22T16:03:13;0.50;;;0.50;;
71042;SDS011;58696;52.134;5.500;2022-11-22T16:05:49;1.30;;;0.60;;
71042;SDS011;58696;52.134;5.500;2022-11-22T16:08:35;0.57;;;0.57;;
71042;SDS011;58696;52.134;5.500;2022-11-22T16:11:03;3.40;;;0.70;;
71042;SDS011;58696;52.134;5.500;2022-11-22T16:13:34;2.42;;;0.73;;
71042;SDS011;58696;52.134;5.500;2022-11-22T16:16:47;3.30;;;0.80;;
71042;SDS011;58696;52.134;5.500;2022-11-22T16:21:55;0.55;;;0.52;;
71042;SDS011;58696;52.134;5.500;2022-11-22T16:24:29;0.40;;;0.40;;
71042;SDS011;58696;52.134;5.500;2022-11-22T16:27:01;0.60;;;0.60;;
71042;SDS011;58696;52.134;5.500;2022-11-22T16:29:33;8.90;;;1.38;;
71042;SDS011;58696;52.134;5.500;2022-11-22T16:32:12;0.80;;;0.65;;
71042;SDS011;58696;52.134;5.500;2022-11-22T16:34:42;3.28;;;1.42;;
71042;SDS011;58696;52.134;5.500;2022-11-22T16:40:13;0.70;;;0.65;;
71042;SDS011;58696;52.134;5.500;2022-11-22T16:42:41;0.60;;;0.60;;
71042;SDS011;58696;52.134;5.500;2022-11-22T16:45:12;0.20;;;0.20;;
71042;SDS011;58696;52.134;5.500;2022-11-22T16:47:44;0.60;;;0.40;;
71042;SDS011;58696;52.134;5.500;2022-11-22T16:50:31;0.43;;;0.43;;
71042;SDS011;58696;52.134;5.500;2022-11-22T16:52:58;1.17;;;0.60;;
71042;SDS011;58696;52.134;5.500;2022-11-22T16:55:28;0.95;;;0.57;;
71042;SDS011;58696;52.134;5.500;2022-11-22T16:57:55;0.90;;;0.75;;
71042;SDS011;58696;52.134;5.500;2022-11-22T17:00:22;1.60;;;1.10;;
71042;SDS011;58696;52.134;5.500;2022-11-22T17:02:50;0.65;;;0.65;;
71042;SDS011;58696;52.134;5.500;2022-11-22T17:05:18;1.95;;;1.00;;
71042;SDS011;58696;52.134;5.500;2022-11-22T17:07:45;1.67;;;1.15;;
71042;SDS011;58696;52.134;5.500;2022-11-22T17:10:12;1.60;;;1.13;;
71042;SDS011;58696;52.134;5.500;2022-11-22T17:12:39;1.23;;;1.08;;
71042;SDS011;58696;52.134;5.500;2022-11-22T17:15:08;2.25;;;1.42;;
71042;SDS011;58696;52.134;5.500;2022-11-22T17:17:36;1.65;;;1.05;;
71042;SDS011;58696;52.134;5.500;2022-11-22T17:20:03;1.30;;;1.20;;
71042;SDS011;58696;52.134;5.500;2022-11-22T17:22:31;1.33;;;1.10;;
71042;SDS011;58696;52.134;5.500;2022-11-22T17:24:59;1.77;;;1.33;;
71042;SDS011;58696;52.134;5.500;2022-11-22T17:27:26;1.10;;;1.05;;
71042;SDS011;58696;52.134;5.500;2022-11-22T17:29:54;5.05;;;1.40;;
71042;SDS011;58696;52.134;5.500;2022-11-22T17:32:21;1.75;;;1.30;;
71042;SDS011;58696;52.134;5.500;2022-11-22T17:34:48;2.40;;;2.05;;
71042;SDS011;58696;52.134;5.500;2022-11-22T17:37:19;1.42;;;1.33;;
71042;SDS011;58696;52.134;5.500;2022-11-22T17:39:49;1.60;;;1.50;;
71042;SDS011;58696;52.134;5.500;2022-11-22T17:42:16;4.07;;;1.83;;
71042;SDS011;58696;52.134;5.500;2022-11-22T17:44:44;1.83;;;1.73;;
71042;SDS011;58696;52.134;5.500;2022-11-22T17:47:11;1.63;;;1.40;;
71042;SDS011;58696;52.134;5.500;2022-11-22T17:49:38;2.15;;;1.58;;